createdAt,value
2017-07-05T03:54:26.955Z,4.97
2017-07-05T03:56:54.035Z,4.57
2017-07-05T03:59:21.180Z,4.80
2017-07-05T04:01:49.021Z,4.70
2017-07-05T04:04:15.805Z,4.80
2017-07-05T04:06:43.316Z,4.20
2017-07-05T04:09:10.482Z,4.30
2017-07-05T04:11:37.874Z,5.07
2017-07-05T04:14:04.675Z,5.77
2017-07-05T04:16:31.469Z,4.93
2017-07-05T04:18:58.646Z,3.93
2017-07-05T04:21:25.411Z,3.70
2017-07-05T04:23:52.496Z,4.33
2017-07-05T04:26:19.305Z,4.23
2017-07-05T04:28:46.621Z,3.60
2017-07-05T04:31:14.221Z,4.17
2017-07-05T04:33:41.145Z,3.87
2017-07-05T04:36:07.925Z,3.70
2017-07-05T04:38:35.349Z,4.40
2017-07-05T04:41:02.116Z,4.70
2017-07-05T04:43:29.227Z,3.87
2017-07-05T04:45:56.356Z,3.57
2017-07-05T04:48:23.140Z,4.07
2017-07-05T04:50:50.221Z,3.77
2017-07-05T04:53:17.265Z,4.20
2017-07-05T04:55:44.185Z,4.50
2017-07-05T04:58:11.066Z,4.60
2017-07-05T05:00:38.600Z,4.70
2017-07-05T05:03:05.481Z,3.93
2017-07-05T05:05:32.260Z,4.17
2017-07-05T05:07:59.866Z,7.03
2017-07-05T05:10:27.288Z,3.63
2017-07-05T05:12:54.312Z,4.17
2017-07-05T05:15:21.382Z,3.73
2017-07-05T05:17:48.753Z,3.03
2017-07-05T05:20:16.394Z,5.57
2017-07-05T05:22:44.227Z,4.07
2017-07-05T05:25:10.994Z,3.57
2017-07-05T05:27:37.860Z,5.20
2017-07-05T05:30:04.643Z,4.03
2017-07-05T05:32:31.457Z,4.63
2017-07-05T05:34:58.400Z,3.93
2017-07-05T05:37:26.224Z,4.33
2017-07-05T05:39:53.614Z,4.80
2017-07-05T05:42:21.478Z,3.70
2017-07-05T05:44:49.235Z,4.03
2017-07-05T05:47:16.291Z,4.00
2017-07-05T05:49:43.179Z,3.47
2017-07-05T05:52:10.401Z,3.97
2017-07-05T05:54:37.566Z,3.90
2017-07-05T05:57:05.728Z,3.30
2017-07-05T05:59:32.824Z,3.33
2017-07-05T06:01:59.886Z,3.60
2017-07-05T06:04:27.287Z,3.27
2017-07-05T06:06:54.066Z,2.90
2017-07-05T06:09:20.933Z,3.00
2017-07-05T06:11:48.056Z,3.57
2017-07-05T06:14:15.310Z,3.17
2017-07-05T06:16:42.721Z,2.70
2017-07-05T06:19:10.899Z,3.43
2017-07-05T06:21:38.075Z,2.77
2017-07-05T06:24:04.877Z,2.73
2017-07-05T06:26:31.934Z,2.20
2017-07-05T06:28:58.985Z,3.43
2017-07-05T06:31:25.767Z,2.87
2017-07-05T06:33:52.965Z,2.23
2017-07-05T06:36:20.017Z,2.30
2017-07-05T06:38:47.387Z,2.60
2017-07-05T06:41:14.993Z,2.20
2017-07-05T06:43:41.921Z,2.30
2017-07-05T06:46:09.146Z,2.60
2017-07-05T06:48:36.371Z,2.77
2017-07-05T06:51:03.906Z,2.23
2017-07-05T06:53:31.238Z,1.93
2017-07-05T06:55:59.501Z,2.20
2017-07-05T06:58:27.110Z,1.87
2017-07-05T07:00:53.874Z,2.03
2017-07-05T07:03:20.797Z,2.60
2017-07-05T07:05:48.335Z,2.00
2017-07-05T07:08:16.029Z,1.80
2017-07-05T07:10:43.056Z,2.10
2017-07-05T07:13:10.112Z,2.30
2017-07-05T07:15:36.875Z,2.23
2017-07-05T07:18:03.862Z,2.97
2017-07-05T07:20:30.789Z,2.43
2017-07-05T07:22:58.759Z,2.10
2017-07-05T07:25:25.987Z,2.30
2017-07-05T07:27:53.562Z,2.57
2017-07-05T07:30:20.535Z,2.80
2017-07-05T07:32:47.584Z,2.30
2017-07-05T07:35:14.402Z,2.00
2017-07-05T07:37:41.386Z,1.80
2017-07-05T07:40:08.613Z,2.00
2017-07-05T07:42:35.750Z,2.07
2017-07-05T07:45:02.860Z,1.90
2017-07-05T07:47:30.080Z,2.30
2017-07-05T07:49:57.698Z,2.20
2017-07-05T07:52:25.100Z,2.60
2017-07-05T07:54:51.927Z,2.27
2017-07-05T07:57:18.720Z,1.83
2017-07-05T07:59:46.570Z,1.73
2017-07-05T08:02:13.665Z,2.30
2017-07-05T08:04:41.149Z,2.10
2017-07-05T08:07:08.345Z,2.03
2017-07-05T08:09:35.238Z,2.63
2017-07-05T08:12:02.679Z,1.40
2017-07-05T08:14:29.457Z,2.50
2017-07-05T08:16:56.214Z,2.13
2017-07-05T08:19:23.304Z,2.07
2017-07-05T08:21:50.360Z,2.40
2017-07-05T08:24:17.225Z,1.80
2017-07-05T08:26:44.737Z,1.97
2017-07-05T08:29:12.128Z,1.47
2017-07-05T08:31:39.448Z,2.00
2017-07-05T08:34:06.381Z,1.87
2017-07-05T08:36:34.059Z,2.00
2017-07-05T08:39:00.865Z,2.13
2017-07-05T08:41:27.967Z,1.60
2017-07-05T08:43:54.727Z,2.17
2017-07-05T08:46:21.534Z,1.70
2017-07-05T08:48:48.295Z,1.87
2017-07-05T08:51:15.512Z,2.30
2017-07-05T08:53:42.505Z,1.87
2017-07-05T08:56:09.547Z,1.23
2017-07-05T08:58:36.969Z,1.70
2017-07-05T09:01:03.737Z,1.60
2017-07-05T09:03:30.543Z,1.90
2017-07-05T09:05:57.368Z,1.90
2017-07-05T09:08:24.196Z,1.67
2017-07-05T09:10:51.418Z,1.53
2017-07-05T09:13:19.120Z,1.87
2017-07-05T09:15:46.498Z,1.80
2017-07-05T09:18:14.247Z,1.60
2017-07-05T09:20:41.764Z,2.43
2017-07-05T09:23:09.156Z,2.00
2017-07-05T09:25:36.019Z,2.37
2017-07-05T09:28:03.215Z,1.60
2017-07-05T09:30:30.701Z,2.47
2017-07-05T09:32:57.965Z,2.20
2017-07-05T09:35:25.491Z,1.60
2017-07-05T09:37:52.994Z,1.80
2017-07-05T09:40:20.374Z,2.00
2017-07-05T09:42:47.238Z,2.20
2017-07-05T09:45:14.579Z,2.30
2017-07-05T09:47:41.406Z,1.90
2017-07-05T09:50:10.031Z,2.10
2017-07-05T09:52:38.491Z,2.43
2017-07-05T09:55:07.280Z,1.90
2017-07-05T09:57:34.282Z,1.90
2017-07-05T10:00:01.076Z,2.27
2017-07-05T10:02:27.824Z,1.60
2017-07-05T10:04:54.582Z,1.50
2017-07-05T10:07:21.354Z,1.83
2017-07-05T10:09:48.087Z,0.73
2017-07-05T10:12:14.884Z,1.80
2017-07-05T10:14:41.645Z,1.40
2017-07-05T10:17:08.401Z,1.00
2017-07-05T10:19:47.016Z,1.70
2017-07-05T10:22:14.249Z,2.00
2017-07-05T10:24:41.429Z,1.90
2017-07-05T10:27:08.481Z,1.80
2017-07-05T10:29:35.979Z,1.50
2017-07-05T10:32:03.548Z,1.50
2017-07-05T10:34:30.708Z,2.00
2017-07-05T10:36:58.831Z,1.87
2017-07-05T10:39:26.363Z,1.30
2017-07-05T10:41:53.393Z,1.03
2017-07-05T10:44:20.448Z,1.73
2017-07-05T10:46:47.675Z,1.70
2017-07-05T10:49:14.554Z,1.73
2017-07-05T10:51:41.467Z,1.93
2017-07-05T10:54:08.521Z,2.20
2017-07-05T10:56:35.310Z,1.70
2017-07-05T10:59:02.152Z,1.70
2017-07-05T11:01:28.969Z,2.00
2017-07-05T11:03:56.126Z,1.97
2017-07-05T11:06:23.000Z,1.63
2017-07-05T11:08:50.229Z,1.70
2017-07-05T11:11:17.000Z,1.60
2017-07-05T11:13:44.169Z,1.30
2017-07-05T11:16:10.949Z,1.70
2017-07-05T11:18:38.442Z,0.50
2017-07-05T11:21:05.318Z,1.50
2017-07-05T11:23:32.084Z,1.93
2017-07-05T11:25:58.897Z,1.57
2017-07-05T11:28:25.870Z,1.57
2017-07-05T11:30:53.091Z,1.50
2017-07-05T11:33:19.883Z,1.87
2017-07-05T11:35:47.463Z,1.53
2017-07-05T11:38:14.865Z,1.40
2017-07-05T11:40:42.756Z,1.40
2017-07-05T11:43:10.145Z,1.60
2017-07-05T11:45:36.949Z,1.43
2017-07-05T11:48:03.731Z,1.60
2017-07-05T11:50:30.542Z,1.60
2017-07-05T11:52:57.638Z,1.70
2017-07-05T11:55:24.411Z,2.03
2017-07-05T11:57:51.218Z,1.80
2017-07-05T12:00:18.170Z,1.70
2017-07-05T12:02:45.463Z,1.60
2017-07-05T12:05:12.604Z,1.73
2017-07-05T12:07:40.373Z,1.67
2017-07-05T12:10:07.324Z,1.80
2017-07-05T12:12:35.090Z,2.33
2017-07-05T12:15:02.028Z,1.53
2017-07-05T12:17:29.404Z,1.47
2017-07-05T12:19:56.447Z,1.80
2017-07-05T12:22:23.238Z,1.60
2017-07-05T12:24:49.995Z,1.90
2017-07-05T12:27:16.829Z,1.60
2017-07-05T12:29:43.594Z,1.57
2017-07-05T12:32:10.649Z,1.73
2017-07-05T12:34:37.450Z,1.83
2017-07-05T12:37:04.234Z,1.53
2017-07-05T12:39:31.331Z,1.80
2017-07-05T12:41:58.097Z,1.80
2017-07-05T12:44:24.856Z,1.77
2017-07-05T12:46:51.709Z,1.30
2017-07-05T12:49:18.792Z,1.73
2017-07-05T12:51:45.944Z,1.73
2017-07-05T12:54:13.454Z,1.40
2017-07-05T12:56:40.562Z,1.03
2017-07-05T12:59:07.919Z,1.60
2017-07-05T13:01:34.698Z,1.50
2017-07-05T13:04:02.285Z,1.60
2017-07-05T13:06:29.056Z,1.67
2017-07-05T13:08:56.135Z,1.43
2017-07-05T13:11:23.187Z,1.60
2017-07-05T13:13:49.960Z,1.63
2017-07-05T13:16:16.760Z,1.70
2017-07-05T13:18:43.733Z,1.53
2017-07-05T13:21:10.612Z,2.13
2017-07-05T13:23:37.398Z,1.70
2017-07-05T13:26:04.585Z,1.83
2017-07-05T13:28:31.396Z,1.30
2017-07-05T13:30:58.167Z,1.70
2017-07-05T13:33:25.439Z,1.70
2017-07-05T13:35:52.271Z,1.53
2017-07-05T13:38:19.681Z,2.17
2017-07-05T13:40:46.905Z,1.50
2017-07-05T13:43:13.707Z,1.60
2017-07-05T13:45:40.476Z,1.53
2017-07-05T13:48:07.448Z,1.50
2017-07-05T13:50:34.503Z,1.33
2017-07-05T13:53:01.558Z,1.30
2017-07-05T13:55:28.929Z,4.50
2017-07-05T13:57:56.532Z,1.47
2017-07-05T14:00:23.635Z,1.17
2017-07-05T14:02:51.381Z,1.33
2017-07-05T14:05:18.504Z,1.17
2017-07-05T14:07:45.545Z,1.30
2017-07-05T14:10:12.342Z,1.10
2017-07-05T14:12:39.431Z,1.23
2017-07-05T14:15:06.235Z,1.33
2017-07-05T14:17:33.178Z,1.33
2017-07-05T14:20:00.517Z,1.40
2017-07-05T14:22:28.245Z,1.20
2017-07-05T14:24:55.794Z,1.00
2017-07-05T14:27:23.271Z,1.07
2017-07-05T14:29:50.609Z,1.40
2017-07-05T14:32:17.605Z,1.50
2017-07-05T14:34:45.094Z,1.30
2017-07-05T14:37:12.029Z,1.50
2017-07-05T14:39:39.082Z,1.47
2017-07-05T14:42:06.609Z,1.60
2017-07-05T14:44:33.366Z,1.70
2017-07-05T14:47:00.269Z,1.50
2017-07-05T14:49:27.460Z,1.40
2017-07-05T14:51:54.338Z,1.30
2017-07-05T14:54:21.400Z,1.73
2017-07-05T14:59:21.812Z,1.20
2017-07-05T15:01:49.652Z,1.30
2017-07-05T15:04:16.465Z,1.40
2017-07-05T15:09:09.163Z,1.47
2017-07-05T15:11:36.322Z,1.50
2017-07-05T15:14:03.463Z,1.47
2017-07-05T15:16:30.416Z,2.80
2017-07-05T15:18:57.270Z,1.80
2017-07-05T15:21:24.670Z,1.40
2017-07-05T15:23:52.341Z,1.47
2017-07-05T15:26:19.878Z,1.43
2017-07-05T15:28:46.890Z,2.03
2017-07-05T15:31:13.807Z,1.27
2017-07-05T15:33:40.567Z,1.37
2017-07-05T15:36:07.359Z,3.87
2017-07-05T15:38:34.119Z,1.60
2017-07-05T15:41:02.259Z,1.27
2017-07-05T15:43:29.479Z,1.43
2017-07-05T15:45:56.255Z,1.63
2017-07-05T15:48:23.617Z,1.70
2017-07-05T15:50:50.381Z,1.50
2017-07-05T15:53:17.411Z,1.50
2017-07-05T15:55:44.910Z,1.40
2017-07-05T15:58:11.706Z,1.50
2017-07-05T16:00:38.763Z,1.60
2017-07-05T16:03:05.634Z,1.50
2017-07-05T16:05:32.859Z,1.30
2017-07-05T16:07:59.750Z,1.27
2017-07-05T16:10:26.794Z,1.50
2017-07-05T16:12:53.603Z,1.70
2017-07-05T16:15:20.457Z,1.50
2017-07-05T16:17:48.322Z,1.20
2017-07-05T16:20:15.098Z,1.50
2017-07-05T16:22:42.504Z,1.27
2017-07-05T16:25:09.590Z,1.87
2017-07-05T16:27:37.333Z,1.30
2017-07-05T16:30:04.142Z,1.33
2017-07-05T16:32:31.364Z,1.53
2017-07-05T16:34:58.147Z,1.67
2017-07-05T16:37:25.163Z,1.60
2017-07-05T16:39:52.571Z,1.50
2017-07-05T16:42:20.496Z,1.67
2017-07-05T16:44:47.275Z,1.50
2017-07-05T16:47:14.034Z,1.50
2017-07-05T16:49:40.869Z,1.43
2017-07-05T16:52:08.402Z,1.37
2017-07-05T16:54:35.281Z,1.37
2017-07-05T16:57:02.061Z,2.10
2017-07-05T16:59:29.563Z,1.50
2017-07-05T17:01:56.616Z,1.30
2017-07-05T17:04:23.668Z,1.60
2017-07-05T17:06:51.129Z,2.27
2017-07-05T17:09:18.456Z,1.40
2017-07-05T17:11:45.272Z,1.50
2017-07-05T17:14:12.955Z,1.37
2017-07-05T17:16:40.435Z,1.63
2017-07-05T17:19:07.265Z,1.57
2017-07-05T17:21:34.097Z,1.47
2017-07-05T17:24:00.856Z,1.60
2017-07-05T17:26:28.066Z,1.50
2017-07-05T17:28:55.589Z,1.30
2017-07-05T17:31:22.790Z,1.83
2017-07-05T17:33:50.056Z,1.83
2017-07-05T17:36:16.818Z,1.53
2017-07-05T17:38:44.238Z,1.60
2017-07-05T17:41:11.481Z,1.40
2017-07-05T17:43:38.297Z,1.43
2017-07-05T17:46:05.072Z,1.40
2017-07-05T17:48:32.478Z,1.77
2017-07-05T17:50:59.280Z,1.83
2017-07-05T17:53:27.223Z,1.60
2017-07-05T17:55:54.546Z,1.73
2017-07-05T17:58:21.326Z,1.90
2017-07-05T18:00:48.853Z,1.60
2017-07-05T18:03:16.318Z,1.90
2017-07-05T18:05:43.370Z,1.50
2017-07-05T18:08:10.896Z,1.97
2017-07-05T18:10:38.661Z,2.00
2017-07-05T18:13:05.760Z,1.93
2017-07-05T18:15:32.812Z,1.93
2017-07-05T18:18:00.041Z,2.17
2017-07-05T18:20:26.840Z,1.43
2017-07-05T18:22:53.975Z,1.90
2017-07-05T18:25:21.025Z,1.57
2017-07-05T18:27:48.083Z,2.37
2017-07-05T18:30:15.133Z,1.70
2017-07-05T18:32:42.186Z,2.20
2017-07-05T18:35:09.790Z,1.80
2017-07-05T18:37:36.737Z,1.83
2017-07-05T18:40:03.530Z,1.40
2017-07-05T18:42:31.275Z,1.80
2017-07-05T18:44:58.373Z,1.47
2017-07-05T18:47:25.159Z,1.80
2017-07-05T18:49:52.288Z,1.30
2017-07-05T18:52:19.531Z,1.70
2017-07-05T18:54:46.959Z,1.67
2017-07-05T18:57:14.556Z,1.83
2017-07-05T18:59:41.381Z,1.80
2017-07-05T19:02:08.427Z,1.90
2017-07-05T19:04:35.242Z,2.60
2017-07-05T19:07:02.298Z,2.77
2017-07-05T19:09:29.071Z,2.60
2017-07-05T19:11:56.094Z,2.43
2017-07-05T19:14:23.620Z,2.10
2017-07-05T19:16:51.358Z,2.57
2017-07-05T19:19:18.481Z,2.30
2017-07-05T19:21:45.701Z,2.20
2017-07-05T19:24:12.575Z,1.90
2017-07-05T19:26:40.079Z,2.10
2017-07-05T19:29:07.472Z,2.03
2017-07-05T19:31:34.279Z,1.70
2017-07-05T19:34:01.682Z,1.80
2017-07-05T19:39:01.686Z,1.70
2017-07-05T19:41:28.467Z,2.07
2017-07-05T19:43:55.278Z,1.70
2017-07-05T19:46:22.172Z,2.40
2017-07-05T19:48:49.057Z,2.20
2017-07-05T19:51:16.481Z,2.40
2017-07-05T19:53:43.450Z,2.00
2017-07-05T19:56:10.929Z,2.03
2017-07-05T19:58:38.204Z,1.70
2017-07-05T20:01:05.413Z,2.13
2017-07-05T20:03:32.736Z,2.33
2017-07-05T20:05:59.513Z,2.13
2017-07-05T20:08:26.716Z,2.37
2017-07-05T20:10:53.488Z,2.67
2017-07-05T20:13:20.906Z,2.30
2017-07-05T20:15:47.908Z,2.13
2017-07-05T20:18:15.082Z,2.13
2017-07-05T20:20:41.903Z,2.60
2017-07-05T20:23:09.191Z,2.33
2017-07-05T20:25:36.245Z,2.20
2017-07-05T20:28:03.297Z,2.60
2017-07-05T20:30:30.361Z,2.60
2017-07-05T20:32:57.710Z,2.33
2017-07-05T20:35:24.767Z,2.10
2017-07-05T20:37:51.543Z,3.27
2017-07-05T20:40:18.403Z,2.80
2017-07-05T20:42:45.615Z,2.90
2017-07-05T20:45:12.423Z,3.13
2017-07-05T20:47:40.644Z,3.40
2017-07-05T20:50:07.895Z,2.77
2017-07-05T20:52:34.694Z,3.70
2017-07-05T20:55:02.621Z,3.37
2017-07-05T20:57:30.183Z,3.03
2017-07-05T20:59:56.956Z,2.80
2017-07-05T21:02:23.883Z,3.47
2017-07-05T21:04:50.688Z,3.50
2017-07-05T21:07:17.756Z,3.53
2017-07-05T21:09:44.735Z,3.93
2017-07-05T21:12:12.147Z,2.80
2017-07-05T21:14:38.977Z,3.10
2017-07-05T21:17:05.895Z,4.33
2017-07-05T21:19:32.665Z,3.83
2017-07-05T21:21:59.493Z,3.50
2017-07-05T21:24:26.255Z,2.63
2017-07-05T21:26:53.031Z,2.73
2017-07-05T21:29:20.489Z,2.90
2017-07-05T21:31:47.282Z,3.37
2017-07-05T21:34:14.772Z,3.90
2017-07-05T21:36:41.837Z,3.30
2017-07-05T21:39:08.608Z,2.80
2017-07-05T21:41:35.810Z,3.27
2017-07-05T21:44:03.441Z,2.80
2017-07-05T21:46:30.367Z,3.00
2017-07-05T21:48:57.409Z,4.43
2017-07-05T21:51:25.289Z,3.30
2017-07-05T21:53:52.112Z,3.10
2017-07-05T21:56:19.628Z,3.03
2017-07-05T21:58:46.450Z,2.60
2017-07-05T22:01:13.317Z,2.80
2017-07-05T22:03:40.086Z,2.50
2017-07-05T22:06:07.089Z,2.50
2017-07-05T22:08:34.589Z,2.70
2017-07-05T22:11:01.856Z,2.53
2017-07-05T22:13:29.227Z,2.80
2017-07-05T22:15:56.008Z,2.90
2017-07-05T22:18:22.806Z,2.87
